Time;durP1;ratioP1;P1;durP2;ratioP2;P2;SDS_P1;SDS_P2;PMS_P1;PMS_P2;Temp;Humidity;BMP_temperature;BMP_pressure;BME280_temperature;BME280_humidity;BME280_pressure;Samples;Min_cycle;Max_cycle;Signal;HPM_P1;HPM_P2
2022/05/02 00:01:53;;;;;;;14.35;9.77;;;;;;;;;;4787480;30;20463;-59
2022/05/02 00:04:19;;;;;;;16.13;9.63;;;7.20;99.90;;;;;;4787515;30;20609;-59
2022/05/02 00:06:45;;;;;;;15.10;9.82;;;;;;;;;;4787864;30;20136;-59
2022/05/02 00:09:11;;;;;;;12.98;9.45;;;;;;;;;;4787653;30;20051;-60
2022/05/02 00:11:36;;;;;;;14.70;10.27;;;7.40;99.90;;;;;;4771601;30;20092;-60
2022/05/02 00:14:02;;;;;;;12.65;9.23;;;;;;;;;;4786167;29;20542;-59
2022/05/02 00:16:28;;;;;;;13.52;10.02;;;7.00;99.90;;;;;;4787594;30;20055;-59
2022/05/02 00:18:54;;;;;;;12.48;9.82;;;;;;;;;;4771211;30;20051;-59
2022/05/02 00:21:20;;;;;;;14.73;10.13;;;7.00;99.90;;;;;;4787170;30;20066;-59
2022/05/02 00:23:45;;;;;;;14.77;9.82;;;7.00;99.90;;;;;;4787313;30;20055;-59
2022/05/02 00:26:11;;;;;;;12.60;9.90;;;6.10;99.90;;;;;;4771590;30;20055;-59
2022/05/02 00:28:37;;;;;;;14.48;9.90;;;;;;;;;;4787200;30;20055;-59
2022/05/02 00:31:03;;;;;;;11.27;9.02;;;;;;;;;;4770977;30;20062;-59
2022/05/02 00:33:30;;;;;;;11.75;9.07;;;;;;;;;;4787282;30;20058;-59
2022/05/02 00:35:56;;;;;;;13.88;9.60;;;;;;;;;;4787282;30;20063;-59
2022/05/02 00:38:21;;;;;;;16.50;9.40;;;6.40;99.90;;;;;;4787145;30;20091;-59
2022/05/02 00:40:47;;;;;;;14.43;9.45;;;6.70;99.90;;;;;;4787064;30;20055;-59
2022/05/02 00:43:13;;;;;;;13.18;9.23;;;;;;;;;;4787065;30;20047;-59
2022/05/02 00:45:39;;;;;;;14.57;9.45;;;;;;;;;;4786935;30;20722;-59
2022/05/02 00:48:06;;;;;;;13.63;9.48;;;6.50;99.90;;;;;;4787147;30;20051;-59
2022/05/02 00:50:35;;;;;;;12.65;9.40;;;6.40;99.90;;;;;;4770807;30;20054;-58
2022/05/02 00:53:04;;;;;;;14.63;9.55;;;6.40;99.90;;;;;;4786955;30;20058;-58
2022/05/02 00:55:30;;;;;;;10.70;9.32;;;6.00;99.90;;;;;;4786737;30;20062;-58
2022/05/02 00:57:59;;;;;;;14.85;9.50;;;6.30;99.90;;;;;;4770851;30;20508;-59
2022/05/02 01:00:25;;;;;;;11.75;9.82;;;;;;;;;;4784851;30;20397;-58
2022/05/02 01:02:51;;;;;;;11.77;9.60;;;6.20;99.90;;;;;;4776946;29;20090;-58
2022/05/02 01:05:17;;;;;;;12.18;9.55;;;6.80;99.90;;;;;;4770090;30;20079;-58
2022/05/02 01:07:47;;;;;;;13.25;10.15;;;6.40;99.90;;;;;;4778949;30;20563;-58
2022/05/02 01:10:17;;;;;;;15.15;10.45;;;6.30;99.90;;;;;;4768751;30;20159;-58
2022/05/02 01:12:43;;;;;;;15.82;10.77;;;6.00;99.90;;;;;;4768705;30;20135;-59
2022/05/02 01:15:09;;;;;;;13.05;10.82;;;5.80;99.90;;;;;;4768652;30;20500;-59
2022/05/02 01:17:37;;;;;;;14.60;10.32;;;5.60;99.90;;;;;;4768996;30;20082;-59
2022/05/02 01:20:07;;;;;;;13.15;9.98;;;6.00;99.90;;;;;;4768578;30;20124;-59
2022/05/02 01:22:33;;;;;;;14.50;9.85;;;6.30;99.90;;;;;;4768507;30;20500;-59
2022/05/02 01:24:59;;;;;;;13.70;10.25;;;;;;;;;;4768512;30;20056;-57
2022/05/02 01:27:25;;;;;;;14.23;10.07;;;;;;;;;;4768431;30;20054;-57
2022/05/02 01:29:51;;;;;;;12.50;9.85;;;5.60;99.90;;;;;;4768705;30;20492;-58
2022/05/02 01:32:17;;;;;;;11.52;8.95;;;;;;;;;;4768615;30;20052;-58
2022/05/02 01:34:43;;;;;;;12.15;9.60;;;5.70;99.90;;;;;;4768759;30;20059;-58
2022/05/02 01:37:11;;;;;;;13.13;10.73;;;5.50;99.90;;;;;;4768358;30;20516;-58
2022/05/02 01:39:37;;;;;;;17.25;12.10;;;5.50;99.90;;;;;;4768522;30;20059;-57
2022/05/02 01:42:05;;;;;;;14.43;11.55;;;6.20;99.90;;;;;;4752789;30;20121;-57
2022/05/02 01:44:31;;;;;;;15.95;12.15;;;5.70;99.90;;;;;;4768524;30;20047;-58
2022/05/02 01:46:58;;;;;;;15.00;11.70;;;5.70;99.90;;;;;;4768457;30;20063;-57
2022/05/02 01:49:24;;;;;;;16.00;11.50;;;6.10;99.90;;;;;;4753016;30;20055;-57
2022/05/02 01:51:50;;;;;;;15.23;12.25;;;5.70;99.90;;;;;;4768373;30;20447;-57
2022/05/02 01:54:17;;;;;;;15.25;11.43;;;5.40;99.90;;;;;;4752300;30;20055;-58
2022/05/02 01:56:43;;;;;;;16.65;11.73;;;5.10;99.90;;;;;;4768379;30;20063;-58
2022/05/02 01:59:09;;;;;;;17.55;11.77;;;5.50;99.90;;;;;;4768456;30;20095;-58
2022/05/02 02:01:35;;;;;;;14.50;11.57;;;;;;;;;;4768321;30;20210;-60
2022/05/02 02:05:48;;;;;;;13.23;11.57;;;5.40;99.90;;;;;;4752239;30;20051;-59
2022/05/02 02:06:50;;;;;;;14.43;11.90;;;5.40;99.90;;;;;;4768092;30;20137;-59
2022/05/02 02:09:16;;;;;;;15.70;11.40;;;5.00;99.90;;;;;;4768352;30;20052;-58
2022/05/02 02:11:42;;;;;;;15.25;12.73;;;;;;;;;;4768453;30;20135;-59
2022/05/02 02:14:08;;;;;;;16.38;12.32;;;5.00;99.90;;;;;;4768204;30;20378;-58
2022/05/02 02:16:34;;;;;;;15.90;13.02;;;;;;;;;;4768240;30;20092;-59
2022/05/02 02:19:00;;;;;;;17.10;13.07;;;5.00;99.90;;;;;;4752014;30;20442;-59
2022/05/02 02:21:26;;;;;;;16.65;12.82;;;;;;;;;;4768119;30;20052;-59
2022/05/02 02:23:52;;;;;;;19.92;13.15;;;;;;;;;;4768307;30;20082;-59
2022/05/02 02:26:18;;;;;;;16.52;13.00;;;;;;;;;;4752143;30;20109;-59
2022/05/02 02:28:44;;;;;;;21.10;14.68;;;4.80;99.90;;;;;;4752037;30;20516;-59
2022/05/02 02:31:10;;;;;;;20.45;13.75;;;;;;;;;;4768150;30;20052;-59
2022/05/02 02:33:37;;;;;;;18.20;13.60;;;;;;;;;;4767990;30;20059;-59
2022/05/02 02:36:05;;;;;;;16.30;13.88;;;3.80;99.90;;;;;;4751989;30;20060;-59
2022/05/02 02:38:31;;;;;;;20.27;13.20;;;5.00;99.90;;;;;;4769795;30;20051;-59
2022/05/02 02:40:56;;;;;;;16.35;12.85;;;5.10;99.90;;;;;;4771487;30;20083;-59
2022/05/02 02:43:22;;;;;;;16.35;12.52;;;5.00;99.90;;;;;;4755067;30;20058;-59
2022/05/02 02:45:48;;;;;;;16.30;13.35;;;5.20;99.90;;;;;;4770066;30;20137;-58
2022/05/02 02:48:14;;;;;;;17.10;13.10;;;;;;;;;;4755090;30;20056;-59
2022/05/02 02:50:40;;;;;;;20.88;13.13;;;;;;;;;;4771676;30;20055;-59
2022/05/02 02:53:06;;;;;;;21.50;13.05;;;;;;;;;;4771187;30;20097;-59
2022/05/02 02:55:32;;;;;;;19.33;14.02;;;;;;;;;;4770995;30;20055;-59
2022/05/02 02:57:58;;;;;;;18.35;14.43;;;4.80;99.90;;;;;;4771192;30;20552;-59
2022/05/02 03:00:24;;;;;;;20.38;15.27;;;;;;;;;;4770822;30;20131;-59
2022/05/02 03:02:50;;;;;;;21.80;16.27;;;;;;;;;;4770842;30;20060;-59
2022/05/02 03:08:00;;;;;;;22.77;17.02;;;4.60;99.90;;;;;;4770942;30;20043;-59
2022/05/02 03:10:27;;;;;;;23.08;15.77;;;4.60;99.90;;;;;;4770795;30;20104;-59
2022/05/02 03:12:53;;;;;;;19.33;15.05;;;4.50;99.90;;;;;;4770946;30;20047;-59
2022/05/02 03:15:19;;;;;;;22.98;14.50;;;4.70;99.90;;;;;;4754975;30;20056;-59
2022/05/02 03:17:44;;;;;;;18.30;14.73;;;4.80;99.90;;;;;;4754402;30;20071;-60
2022/05/02 03:20:11;;;;;;;19.77;16.00;;;4.80;99.90;;;;;;4754576;30;20056;-59
2022/05/02 03:22:37;;;;;;;25.20;16.33;;;4.50;99.90;;;;;;4770827;30;20055;-59
2022/05/02 03:25:03;;;;;;;19.27;15.52;;;4.70;99.90;;;;;;4770651;30;20055;-59
2022/05/02 03:27:28;;;;;;;23.38;16.45;;;5.00;99.90;;;;;;4770525;30;20134;-59
2022/05/02 03:29:55;;;;;;;19.50;15.10;;;4.70;99.90;;;;;;4770977;30;20048;-59
2022/05/02 03:32:21;;;;;;;22.48;15.40;;;;;;;;;;4770423;30;20147;-59
2022/05/02 03:34:46;;;;;;;20.05;14.43;;;4.60;99.90;;;;;;4770447;30;20455;-59
2022/05/02 03:37:12;;;;;;;19.42;14.77;;;;;;;;;;4770494;30;20090;-59
2022/05/02 03:39:38;;;;;;;18.83;14.38;;;4.50;99.90;;;;;;4770208;30;20267;-59
2022/05/02 03:42:04;;;;;;;20.23;15.18;;;4.80;99.90;;;;;;4754514;30;20547;-59
2022/05/02 03:44:30;;;;;;;19.30;15.10;;;;;;;;;;4770449;30;20460;-60
2022/05/02 03:46:56;;;;;;;22.92;15.50;;;;;;;;;;4770134;30;20051;-60
2022/05/02 03:49:22;;;;;;;18.88;15.15;;;4.40;99.90;;;;;;4769802;30;20056;-59
2022/05/02 03:51:48;;;;;;;19.35;14.63;;;;;;;;;;4770017;30;20129;-60
2022/05/02 03:54:14;;;;;;;19.65;15.07;;;4.50;99.90;;;;;;4770332;30;20095;-58
2022/05/02 03:56:40;;;;;;;19.40;13.10;;;4.40;99.90;;;;;;4754120;30;20090;-58
2022/05/02 03:59:06;;;;;;;19.42;14.40;;;;;;;;;;4769813;30;20463;-58
2022/05/02 04:01:36;;;;;;;18.60;14.30;;;4.30;99.90;;;;;;4769642;30;20140;-58
2022/05/02 04:04:02;;;;;;;19.60;14.25;;;;;;;;;;4769987;30;20138;-59
2022/05/02 04:06:28;;;;;;;18.58;14.40;;;;;;;;;;4769720;30;20055;-58
2022/05/02 04:08:54;;;;;;;23.10;14.82;;;;;;;;;;4769713;30;20048;-58
2022/05/02 04:11:20;;;;;;;18.73;14.70;;;;;;;;;;4769664;30;20412;-58
2022/05/02 04:13:46;;;;;;;23.92;18.08;;;;;;;;;;4769738;30;20133;-58
2022/05/02 04:16:14;;;;;;;22.67;18.08;;;4.00;99.90;;;;;;4769677;30;20083;-57
2022/05/02 04:18:41;;;;;;;22.08;17.15;;;3.30;99.90;;;;;;4753519;30;20055;-59
2022/05/02 04:21:07;;;;;;;24.02;17.98;;;;;;;;;;4769354;30;20063;-59
2022/05/02 04:23:33;;;;;;;22.50;16.33;;;4.40;99.90;;;;;;4769742;30;20047;-58
2022/05/02 04:25:58;;;;;;;21.85;16.00;;;4.30;99.90;;;;;;4753322;30;20059;-58
2022/05/02 04:28:25;;;;;;;24.35;17.25;;;;;;;;;;4768120;30;20044;-57
2022/05/02 04:30:50;;;;;;;23.77;15.95;;;4.20;99.90;;;;;;4769576;30;20135;-59
2022/05/02 04:33:16;;;;;;;19.08;15.55;;;4.20;99.90;;;;;;4769357;30;20076;-57
2022/05/02 04:35:42;;;;;;;21.98;15.13;;;4.30;99.90;;;;;;4753586;30;20063;-58
2022/05/02 04:38:08;;;;;;;20.80;15.48;;;;;;;;;;4769250;30;20048;-58
2022/05/02 04:40:34;;;;;;;19.40;15.10;;;4.50;99.90;;;;;;4753191;30;20387;-58
2022/05/02 04:43:00;;;;;;;21.90;15.23;;;;;;;;;;4769045;30;20044;-58
2022/05/02 04:45:26;;;;;;;20.75;14.65;;;;;;;;;;4769493;30;20083;-60
2022/05/02 04:47:51;;;;;;;20.98;15.60;;;5.10;99.90;;;;;;4768970;30;20051;-58
2022/05/02 04:50:17;;;;;;;21.65;16.95;;;4.90;99.90;;;;;;4768975;30;20163;-59
2022/05/02 04:52:43;;;;;;;24.00;17.17;;;4.80;99.90;;;;;;4768989;30;20136;-60
2022/05/02 04:55:09;;;;;;;21.88;16.63;;;;;;;;;;4753019;30;20398;-58
2022/05/02 04:57:35;;;;;;;23.77;16.75;;;4.90;99.90;;;;;;4768868;30;20066;-59
2022/05/02 05:00:01;;;;;;;21.27;15.15;;;5.50;99.90;;;;;;4768436;30;20059;-58
2022/05/02 05:02:26;;;;;;;18.58;15.05;;;5.50;99.90;;;;;;4768433;30;20059;-59
2022/05/02 05:04:52;;;;;;;26.58;15.82;;;5.50;99.90;;;;;;4753100;30;20060;-59
2022/05/02 05:07:18;;;;;;;23.30;16.48;;;;;;;;;;4768701;30;20055;-59
2022/05/02 05:09:44;;;;;;;21.10;16.48;;;5.60;99.90;;;;;;4768738;30;20067;-59
2022/05/02 05:12:28;;;;;;;17.77;14.85;;;5.90;99.90;;;;;;4752876;30;20081;-59
2022/05/02 05:18:37;;;;;;;17.42;12.88;;;8.40;99.90;;;;;;4768591;30;20094;-60
2022/05/02 05:21:40;;;;;;;15.55;12.60;;;9.70;99.90;;;;;;4768742;30;20052;-59
2022/05/02 05:24:36;;;;;;;13.98;11.30;;;10.30;99.90;;;;;;4768877;30;20445;-59
2022/05/02 05:27:20;;;;;;;14.63;11.37;;;11.80;99.90;;;;;;4768277;29;20113;-59
2022/05/02 05:30:05;;;;;;;14.00;10.80;;;12.10;99.90;;;;;;4779183;30;20297;-59
2022/05/02 05:32:54;;;;;;;13.43;11.25;;;13.50;99.90;;;;;;4785739;30;20458;-60
2022/05/02 05:35:27;;;;;;;12.65;10.77;;;13.90;99.90;;;;;;4776373;30;20059;-60
2022/05/02 05:38:03;;;;;;;15.60;10.70;;;14.50;99.90;;;;;;4785753;30;20144;-60
2022/05/02 05:40:37;;;;;;;11.63;9.70;;;14.80;99.90;;;;;;4785196;29;20052;-60
2022/05/02 05:43:23;;;;;;;15.35;10.50;;;16.00;99.90;;;;;;4785928;30;20579;-60
2022/05/02 05:46:09;;;;;;;12.63;10.02;;;16.50;99.70;;;;;;4785206;30;20071;-60
2022/05/02 05:48:44;;;;;;;12.15;10.00;;;17.10;91.60;;;;;;4785148;29;20130;-60
2022/05/02 05:51:16;;;;;;;16.65;10.27;;;17.30;93.90;;;;;;4785380;30;20055;-60
2022/05/02 05:54:10;;;;;;;14.48;10.20;;;18.10;75.50;;;;;;4784897;29;20059;-61
2022/05/02 05:56:53;;;;;;;14.88;10.10;;;18.50;71.40;;;;;;4768999;30;20063;-61
2022/05/02 05:59:34;;;;;;;13.75;9.75;;;19.30;82.10;;;;;;4768362;30;20070;-60
2022/05/02 06:02:11;;;;;;;15.90;10.40;;;19.50;83.20;;;;;;4768036;30;20056;-61
2022/05/02 06:04:38;;;;;;;13.80;9.40;;;19.80;80.90;;;;;;4768406;30;20114;-62
2022/05/02 06:07:04;;;;;;;14.57;10.13;;;;;;;;;;4768354;30;20508;-60
2022/05/02 06:09:31;;;;;;;14.65;9.73;;;20.80;74.80;;;;;;4752348;30;20110;-60
2022/05/02 06:12:01;;;;;;;14.95;10.10;;;21.10;74.20;;;;;;4769158;30;20455;-60
2022/05/02 06:14:34;;;;;;;13.00;9.93;;;21.60;55.60;;;;;;4771660;30;20067;-60
2022/05/02 06:19:46;;;;;;;;;;;21.80;54.90;;;;;;4772028;30;20062;-60
2022/05/02 06:22:13;;;;;;;13.25;9.27;;;;;;;;;;4771667;30;20017;-60
2022/05/02 06:24:44;;;;;;;15.95;9.23;;;22.80;54.40;;;;;;4771533;30;20116;-60
2022/05/02 06:27:11;;;;;;;12.27;8.38;;;23.10;55.30;;;;;;4771711;30;20102;-60
2022/05/02 06:29:39;;;;;;;12.52;8.10;;;23.30;51.80;;;;;;4771645;30;20056;-60
2022/05/02 06:32:10;;;;;;;11.63;7.53;;;23.30;65.80;;;;;;4771502;30;20051;-60
2022/05/02 06:34:36;;;;;;;10.32;7.63;;;;;;;;;;4771567;30;20047;-60
2022/05/02 06:37:31;;;;;;;14.90;8.02;;;22.60;63.90;;;;;;4771373;30;20055;-60
2022/05/02 06:40:08;;;;;;;15.27;7.95;;;22.60;60.30;;;;;;4771490;30;20059;-59
2022/05/02 06:43:03;;;;;;;11.45;8.05;;;22.20;47.30;;;;;;4771436;30;20056;-60
2022/05/02 06:45:54;;;;;;;12.65;7.88;;;22.00;59.50;;;;;;4771289;30;20060;-60
2022/05/02 06:48:47;;;;;;;12.90;8.25;;;21.70;55.60;;;;;;4771301;30;20056;-60
2022/05/02 06:51:27;;;;;;;13.02;8.40;;;21.90;47.50;;;;;;4771127;30;20066;-60
2022/05/02 06:53:53;;;;;;;17.75;8.10;;;;;;;;;;4771296;30;20164;-59
2022/05/02 06:56:41;;;;;;;13.20;7.97;;;22.90;63.20;;;;;;4770993;30;20525;-60
2022/05/02 06:59:44;;;;;;;13.23;7.75;;;23.40;62.10;;;;;;4771343;30;20120;-60
2022/05/02 07:02:12;;;;;;;12.75;7.63;;;22.60;50.20;;;;;;4770785;30;20063;-60
2022/05/02 07:04:49;;;;;;;14.63;8.27;;;23.20;61.20;;;;;;4770797;30;20071;-60
2022/05/02 07:07:51;;;;;;;13.18;7.78;;;22.90;49.60;;;;;;4771037;30;20095;-60
2022/05/02 07:10:17;;;;;;;14.10;7.75;;;;;;;;;;4770989;30;20101;-59
2022/05/02 07:13:00;;;;;;;11.70;8.43;;;22.90;59.60;;;;;;4770747;30;20463;-60
2022/05/02 07:15:41;;;;;;;14.27;8.20;;;23.40;43.30;;;;;;4755910;30;20094;-60
2022/05/02 07:18:11;;;;;;;15.38;8.30;;;23.10;43.30;;;;;;4770746;30;20459;-59
2022/05/02 07:21:00;;;;;;;12.90;8.25;;;23.00;43.60;;;;;;4770558;30;20197;-60
2022/05/02 07:23:58;;;;;;;17.15;8.57;;;23.00;60.20;;;;;;4769627;30;20173;-60
2022/05/02 07:26:27;;;;;;;13.68;8.23;;;23.20;44.70;;;;;;4770517;30;20052;-59
2022/05/02 07:28:58;;;;;;;13.30;8.35;;;23.50;50.60;;;;;;4770773;30;20051;-59
2022/05/02 07:31:24;;;;;;;13.48;8.48;;;23.30;60.60;;;;;;4754897;30;20059;-59
2022/05/02 07:33:54;;;;;;;14.52;8.45;;;22.40;48.90;;;;;;4770093;30;20047;-59
2022/05/02 07:36:23;;;;;;;9.80;7.97;;;22.30;47.70;;;;;;4769695;30;20088;-59
2022/05/02 07:39:01;;;;;;;12.95;8.20;;;22.10;62.80;;;;;;4770413;30;20059;-59
2022/05/02 07:41:27;;;;;;;13.00;7.90;;;21.70;63.60;;;;;;4770042;30;20113;-59
2022/05/02 07:44:01;;;;;;;13.65;8.07;;;22.30;64.30;;;;;;4770086;30;20048;-60
2022/05/02 07:46:30;;;;;;;13.43;8.15;;;21.50;65.00;;;;;;4768920;30;20134;-60
2022/05/02 07:48:58;;;;;;;12.13;8.00;;;20.40;64.40;;;;;;4753945;30;20052;-60
2022/05/02 07:51:25;;;;;;;14.23;7.70;;;21.00;49.80;;;;;;4770418;30;20059;-59
2022/05/02 07:53:52;;;;;;;12.95;7.97;;;21.00;65.90;;;;;;4770064;30;20059;-59
2022/05/02 07:56:22;;;;;;;12.65;7.68;;;21.00;65.40;;;;;;4770002;30;20363;-59
2022/05/02 07:58:50;;;;;;;12.30;7.10;;;21.30;66.20;;;;;;4769731;30;20505;-60
2022/05/02 08:01:20;;;;;;;11.10;7.50;;;20.90;61.60;;;;;;4769974;30;20051;-60
2022/05/02 08:03:46;;;;;;;14.10;7.20;;;;;;;;;;4769707;30;20056;-60
2022/05/02 08:06:34;;;;;;;10.32;7.20;;;20.30;66.10;;;;;;4769931;30;20083;-59
2022/05/02 08:09:00;;;;;;;13.55;7.30;;;;;;;;;;4769798;30;20056;-60
2022/05/02 08:11:54;;;;;;;11.63;6.97;;;20.10;68.00;;;;;;4769530;30;20055;-60
2022/05/02 08:14:33;;;;;;;12.95;8.07;;;19.60;58.30;;;;;;4770054;30;20059;-60
2022/05/02 08:17:03;;;;;;;17.77;8.52;;;19.60;67.20;;;;;;4769894;30;20143;-60
2022/05/02 08:19:34;;;;;;;15.43;8.63;;;19.40;66.90;;;;;;4769462;30;20052;-60
2022/05/02 08:28:02;;;;;;;15.88;7.72;;;19.00;68.00;;;;;;4769423;30;20070;-60
2022/05/02 08:30:36;;;;;;;11.32;7.45;;;18.80;52.60;;;;;;4769686;30;20405;-61
2022/05/02 08:33:07;;;;;;;11.40;7.80;;;18.40;68.50;;;;;;4769739;30;20055;-60
2022/05/02 08:35:36;;;;;;;15.07;7.65;;;18.40;68.50;;;;;;4753083;30;20059;-60
2022/05/02 08:38:21;;;;;;;14.52;7.68;;;18.10;68.10;;;;;;4769172;30;20513;-60
2022/05/02 08:41:08;;;;;;;15.73;7.35;;;18.20;55.50;;;;;;4753150;30;20142;-59
2022/05/02 08:44:11;;;;;;;10.73;6.47;;;17.80;58.20;;;;;;4769358;30;20404;-59
2022/05/02 08:47:04;;;;;;;11.18;6.60;;;17.80;67.30;;;;;;4732336;30;20059;-59
2022/05/02 08:49:57;;;;;;;10.85;7.40;;;17.80;67.30;;;;;;4769242;30;20052;-59
2022/05/02 08:52:41;;;;;;;10.55;6.60;;;17.90;61.00;;;;;;4769253;30;20417;-59
2022/05/02 08:55:32;;;;;;;9.15;6.72;;;17.80;66.60;;;;;;4768758;30;20135;-60
2022/05/02 08:58:00;;;;;;;11.55;7.47;;;17.30;52.70;;;;;;4769271;30;20105;-59
2022/05/02 09:00:47;;;;;;;10.07;7.95;;;17.10;69.60;;;;;;4768910;30;20059;-59
2022/05/02 09:03:28;;;;;;;10.98;7.65;;;17.30;58.70;;;;;;4768715;30;20051;-60
2022/05/02 09:06:27;;;;;;;9.90;6.70;;;17.60;54.50;;;;;;4768875;30;20147;-60
2022/05/02 09:08:54;;;;;;;14.60;7.65;;;;;;;;;;4769011;30;20062;-61
2022/05/02 09:11:56;;;;;;;12.93;8.00;;;17.60;52.50;;;;;;4752882;30;20500;-60
2022/05/02 09:14:34;;;;;;;10.23;7.05;;;17.20;71.20;;;;;;4752676;30;20059;-60
2022/05/02 09:17:20;;;;;;;13.95;7.88;;;17.70;79.70;;;;;;4768732;30;20066;-59
2022/05/02 09:20:10;;;;;;;10.93;7.70;;;17.80;79.60;;;;;;4737688;30;20056;-59
2022/05/02 09:22:55;;;;;;;15.23;8.18;;;18.10;51.80;;;;;;4768729;30;20148;-59
2022/05/02 09:25:42;;;;;;;11.73;7.32;;;17.90;78.00;;;;;;4768716;30;20055;-59
2022/05/02 09:28:08;;;;;;;9.77;7.43;;;;;;;;;;4752615;30;20131;-60
2022/05/02 09:30:56;;;;;;;9.43;7.22;;;18.00;52.00;;;;;;4768633;30;20146;-60
2022/05/02 09:33:29;;;;;;;10.27;7.47;;;18.20;78.40;;;;;;4768384;30;20062;-60
2022/05/02 09:36:16;;;;;;;10.68;7.10;;;18.40;51.60;;;;;;4768596;30;20056;-60
2022/05/02 09:38:51;;;;;;;11.93;7.70;;;18.30;51.20;;;;;;4768369;30;20052;-60
2022/05/02 09:41:26;;;;;;;11.73;8.20;;;17.90;77.40;;;;;;4768302;30;20055;-60
2022/05/02 09:49:43;;;;;;;11.75;7.53;;;;;;;;;;4774702;30;20106;-60
2022/05/02 09:52:15;;;;;;;12.00;7.88;;;17.10;79.70;;;;;;4774355;30;20475;-60
2022/05/02 09:58:04;;;;;;;12.60;8.63;;;18.60;80.30;;;;;;4750011;30;20058;-68
2022/05/02 10:01:10;;;;;;;11.38;7.53;;;17.60;80.90;;;;;;4780969;29;20065;-68
2022/05/02 10:03:51;;;;;;;11.32;7.75;;;18.00;51.70;;;;;;4791965;30;20073;-70
2022/05/02 10:06:29;;;;;;;10.60;7.63;;;18.30;79.20;;;;;;4792447;30;20436;-68
2022/05/02 10:09:12;;;;;;;13.93;8.55;;;20.00;53.90;;;;;;4776058;30;20043;-69
2022/05/02 10:12:03;;;;;;;11.00;8.32;;;18.20;77.90;;;;;;4776788;30;20096;-69
2022/05/02 10:15:03;;;;;;;14.68;8.27;;;18.20;51.50;;;;;;4791798;30;20112;-69
2022/05/02 10:18:07;;;;;;;13.98;7.60;;;18.10;79.10;;;;;;4792061;30;20078;-69
2022/05/02 10:20:51;;;;;;;14.00;8.43;;;18.20;77.50;;;;;;4791610;30;20441;-69
2022/05/02 10:23:44;;;;;;;11.25;7.82;;;18.60;51.60;;;;;;4792071;30;20186;-68
2022/05/02 10:26:27;;;;;;;16.20;8.82;;;18.80;51.20;;;;;;4766535;30;20153;-69
2022/05/02 10:29:30;;;;;;;13.10;8.32;;;19.30;55.70;;;;;;4791906;30;20050;-69
2022/05/02 10:32:08;;;;;;;14.02;8.43;;;19.10;50.50;;;;;;4791930;30;20091;-69
2022/05/02 10:34:37;;;;;;;14.43;8.07;;;19.20;50.20;;;;;;4791800;30;20059;-69
2022/05/02 10:37:07;;;;;;;24.95;8.18;;;19.30;50.00;;;;;;4791806;30;20055;-69
2022/05/02 10:39:48;;;;;;;17.17;8.50;;;19.40;49.60;;;;;;4775332;30;20059;-69
2022/05/02 10:42:18;;;;;;;11.77;8.40;;;19.50;75.20;;;;;;4791583;30;20132;-69
2022/05/02 10:44:44;;;;;;;12.55;8.35;;;;;;;;;;4775930;30;20120;-69
2022/05/02 10:47:15;;;;;;;11.73;7.85;;;19.40;67.00;;;;;;4791513;30;20485;-69
2022/05/02 10:50:16;;;;;;;13.07;8.55;;;19.30;55.20;;;;;;4791598;30;20483;-70
2022/05/02 10:52:48;;;;;;;14.75;9.32;;;19.10;48.60;;;;;;4791788;30;20059;-70
2022/05/02 10:55:30;;;;;;;12.05;8.75;;;19.50;67.90;;;;;;4791627;30;20070;-67
2022/05/02 10:58:03;;;;;;;11.50;8.52;;;18.70;48.80;;;;;;4774748;29;20047;-67
2022/05/02 11:00:30;;;;;;;14.07;8.25;;;;;;;;;;4788330;30;20068;-67
2022/05/02 11:03:28;;;;;;;11.32;8.65;;;18.80;49.60;;;;;;4788325;30;20144;-68
2022/05/02 11:06:09;;;;;;;13.70;8.40;;;18.70;49.60;;;;;;4788581;30;20055;-67
2022/05/02 11:08:52;;;;;;;14.80;8.60;;;18.70;69.30;;;;;;4788444;30;20051;-68
2022/05/02 11:11:22;;;;;;;11.32;8.23;;;18.90;69.70;;;;;;4788721;30;20197;-68
2022/05/02 11:14:09;;;;;;;13.45;8.07;;;18.90;68.80;;;;;;4788873;30;20062;-68
2022/05/02 11:16:55;;;;;;;11.40;8.40;;;18.90;48.80;;;;;;4788749;30;20063;-68
2022/05/02 11:22:29;;;;;;;11.52;8.93;;;18.50;49.20;;;;;;4804835;29;20047;-68
2022/05/02 11:25:17;;;;;;;21.00;8.85;;;18.50;61.10;;;;;;4806349;29;20093;-68
2022/05/02 11:27:59;;;;;;;15.27;8.80;;;18.60;67.60;;;;;;4806489;29;20059;-68
2022/05/02 11:30:37;;;;;;;15.02;9.07;;;19.10;67.90;;;;;;4790129;29;20066;-68
2022/05/02 11:33:38;;;;;;;12.88;9.52;;;18.80;48.80;;;;;;4806904;29;20063;-69
2022/05/02 11:36:09;;;;;;;18.90;9.32;;;18.70;66.60;;;;;;4791146;29;20054;-69
2022/05/02 11:39:04;;;;;;;11.95;9.35;;;18.80;49.00;;;;;;4806333;29;20138;-69
2022/05/02 11:41:31;;;;;;;15.18;8.88;;;19.20;66.60;;;;;;4806531;29;20472;-69
2022/05/02 11:44:18;;;;;;;11.40;8.40;;;19.30;49.50;;;;;;4805965;29;20047;-71
2022/05/02 11:47:16;;;;;;;10.15;8.52;;;19.70;48.90;;;;;;4806237;29;20144;-70
2022/05/02 11:50:03;;;;;;;12.13;8.85;;;20.20;63.20;;;;;;4801615;29;20073;-70
2022/05/02 11:52:31;;;;;;;11.05;8.40;;;19.80;47.40;;;;;;4805900;29;20054;-70
2022/05/02 11:54:59;;;;;;;14.30;8.27;;;17.60;46.90;;;;;;4806070;29;20557;-70
2022/05/02 11:57:41;;;;;;;11.77;8.00;;;19.80;65.80;;;;;;4806027;29;20059;-69
2022/05/02 12:00:07;;;;;;;14.82;8.00;;;20.30;65.40;;;;;;4805922;29;20058;-69
2022/05/02 12:02:38;;;;;;;12.60;8.60;;;20.40;65.20;;;;;;4805475;29;20059;-69
2022/05/02 12:05:05;;;;;;;12.10;7.53;;;;;;;;;;4806026;29;20047;-69
2022/05/02 12:07:32;;;;;;;10.85;7.97;;;20.60;46.90;;;;;;4805588;29;20092;-70
2022/05/02 12:10:09;;;;;;;12.65;8.45;;;20.60;47.80;;;;;;4805312;29;20054;-70
2022/05/02 12:12:36;;;;;;;14.35;8.75;;;20.60;46.00;;;;;;4805708;29;20051;-69
2022/05/02 12:15:13;;;;;;;13.35;7.43;;;20.10;46.90;;;;;;4805408;29;20530;-69
2022/05/02 12:18:03;;;;;;;11.57;7.90;;;20.40;62.50;;;;;;4806135;29;20070;-71
2022/05/02 12:20:36;;;;;;;10.05;7.47;;;20.50;45.50;;;;;;4805636;29;20054;-70
2022/05/02 12:23:16;;;;;;;11.10;8.55;;;20.20;64.30;;;;;;4789247;29;20075;-70
2022/05/02 12:25:51;;;;;;;11.77;7.35;;;20.00;59.80;;;;;;4805413;29;20046;-69
2022/05/02 12:28:41;;;;;;;12.75;7.65;;;20.10;65.00;;;;;;4805672;29;20196;-70
2022/05/02 12:31:08;;;;;;;11.93;7.38;;;20.40;59.90;;;;;;4789888;29;20055;-69
2022/05/02 12:33:39;;;;;;;10.48;8.38;;;20.10;63.10;;;;;;4805516;29;20069;-68
2022/05/02 12:36:18;;;;;;;10.15;7.78;;;20.10;64.30;;;;;;4805253;29;20078;-68
2022/05/02 12:38:49;;;;;;;9.13;6.85;;;20.30;66.10;;;;;;4789164;29;20046;-69
2022/05/02 12:41:20;;;;;;;14.73;7.68;;;20.50;65.10;;;;;;4805100;29;20057;-69
2022/05/02 12:43:50;;;;;;;10.88;6.70;;;21.10;50.90;;;;;;4805186;29;20042;-69
2022/05/02 12:46:20;;;;;;;7.13;5.80;;;20.70;64.60;;;;;;4805117;29;20533;-69
2022/05/02 12:48:55;;;;;;;9.43;6.20;;;20.70;51.50;;;;;;4804201;29;20098;-69
2022/05/02 12:51:27;;;;;;;7.88;5.97;;;21.00;68.00;;;;;;4805232;29;20055;-68
2022/05/02 12:54:12;;;;;;;11.45;6.60;;;20.90;43.90;;;;;;4804908;29;20509;-69
2022/05/02 13:02:51;;;;;;;10.57;6.45;;;20.60;57.30;;;;;;4804615;29;20065;-68
2022/05/02 13:05:20;;;;;;;10.23;6.60;;;21.70;43.90;;;;;;4804772;29;20051;-68
2022/05/02 13:07:54;;;;;;;17.23;6.40;;;21.50;45.90;;;;;;4804719;29;20054;-69
2022/05/02 13:10:28;;;;;;;9.13;5.55;;;21.40;49.30;;;;;;4804768;29;20055;-69
2022/05/02 13:13:04;;;;;;;10.68;6.10;;;21.30;64.00;;;;;;4804606;29;20086;-69
2022/05/02 13:15:53;;;;;;;8.73;6.07;;;21.50;59.30;;;;;;4804506;29;20154;-68
2022/05/02 13:18:23;;;;;;;10.63;5.90;;;21.70;44.80;;;;;;4805008;29;20134;-68
2022/05/02 13:21:09;;;;;;;9.48;6.20;;;21.50;43.10;;;;;;4803076;29;20062;-68
2022/05/02 13:23:42;;;;;;;10.43;5.55;;;21.60;66.60;;;;;;4804450;29;20046;-68
2022/05/02 13:26:13;;;;;;;8.90;5.80;;;21.60;66.00;;;;;;4803810;29;20058;-69
2022/05/02 13:29:03;;;;;;;11.20;6.00;;;21.80;42.70;;;;;;4804533;29;20438;-69
2022/05/02 13:31:40;;;;;;;9.75;6.05;;;21.90;42.80;;;;;;4804754;29;20050;-69
2022/05/02 13:34:13;;;;;;;14.35;5.72;;;22.00;65.20;;;;;;4804380;29;20137;-69
2022/05/02 13:36:43;;;;;;;10.75;5.97;;;22.00;41.60;;;;;;4804354;29;20134;-68
2022/05/02 13:39:20;;;;;;;10.25;5.60;;;21.90;41.60;;;;;;4804118;29;20081;-69
2022/05/02 13:41:46;;;;;;;10.90;5.28;;;;;;;;;;4804376;29;20062;-69
2022/05/02 13:44:39;;;;;;;9.50;5.40;;;22.10;63.70;;;;;;4805009;29;20428;-68
2022/05/02 13:47:13;;;;;;;8.57;5.35;;;22.80;64.40;;;;;;4804468;29;20063;-69
2022/05/02 13:50:12;;;;;;;8.80;4.50;;;22.00;41.50;;;;;;4804254;29;20061;-68
2022/05/02 13:53:02;;;;;;;9.27;5.10;;;22.00;41.40;;;;;;4804329;29;20054;-68
2022/05/02 13:55:29;;;;;;;9.13;5.65;;;;;;;;;;4788257;29;20137;-68
2022/05/02 13:58:17;;;;;;;7.25;5.43;;;22.20;64.20;;;;;;4804134;29;20531;-69
2022/05/02 14:01:26;;;;;;;10.85;5.60;;;21.20;55.20;;;;;;4804105;29;20069;-68
2022/05/02 14:03:55;;;;;;;10.07;5.07;;;22.30;41.20;;;;;;4791670;29;20058;-68